createdAt,value
2019-04-28T00:04:51.704Z,67
2019-04-28T00:09:51.650Z,67
2019-04-28T00:14:51.959Z,67.9
2019-04-28T00:19:51.773Z,68
2019-04-28T00:24:51.822Z,69
2019-04-28T00:29:52.312Z,70.3
2019-04-28T00:34:51.531Z,70.5
2019-04-28T00:39:51.662Z,72.3
2019-04-28T00:44:51.858Z,72.7
2019-04-28T00:49:52.296Z,72.5
2019-04-28T00:54:52.953Z,71.5
2019-04-28T00:59:58.867Z,72.2
2019-04-28T01:04:51.739Z,72.3
2019-04-28T01:09:52.020Z,71.1
2019-04-28T01:14:57.264Z,71.8
2019-04-28T01:19:51.732Z,70.7
2019-04-28T01:24:51.764Z,71.6
2019-04-28T01:30:06.109Z,70.2
2019-04-28T01:34:51.747Z,70.8
2019-04-28T01:39:51.533Z,70.7
2019-04-28T01:44:51.678Z,70
2019-04-28T01:49:51.726Z,70.1
2019-04-28T01:54:51.549Z,69.7
2019-04-28T01:59:51.719Z,70
2019-04-28T02:04:51.735Z,69.9
2019-04-28T02:09:51.562Z,70.1
2019-04-28T02:14:52.469Z,70.6
2019-04-28T02:19:51.877Z,70.5
2019-04-28T02:24:51.535Z,70.4
2019-04-28T02:29:51.550Z,69.9
2019-04-28T02:34:51.717Z,69.9
2019-04-28T02:39:51.776Z,70.7
2019-04-28T02:44:51.742Z,71.5
2019-04-28T02:49:51.582Z,71.2
2019-04-28T02:54:51.584Z,70.4
2019-04-28T02:59:51.816Z,71.5
2019-04-28T03:04:51.584Z,71.8
2019-04-28T03:09:52.544Z,71
2019-04-28T03:14:51.595Z,71.7
2019-04-28T03:19:52.093Z,71.4
2019-04-28T03:24:51.768Z,71.2
2019-04-28T03:29:52.882Z,71.7
2019-04-28T03:34:54.680Z,71.1
2019-04-28T03:39:51.738Z,71.2
2019-04-28T03:44:51.823Z,70.7
2019-04-28T03:49:51.848Z,70.4
2019-04-28T03:54:51.829Z,70
2019-04-28T03:59:51.947Z,72.4
2019-04-28T04:04:53.176Z,73.8
2019-04-28T04:09:51.910Z,74.1
2019-04-28T04:14:52.866Z,74.6
2019-04-28T04:19:51.836Z,75.1
2019-04-28T04:24:52.907Z,75.1
2019-04-28T04:29:51.816Z,73.5
2019-04-28T04:34:51.824Z,72.4
2019-04-28T04:39:51.689Z,71.9
2019-04-28T04:44:51.623Z,73.5
2019-04-28T04:49:51.819Z,72.5
2019-04-28T04:54:51.882Z,72.9
2019-04-28T04:59:51.784Z,71.5
2019-04-28T05:04:51.667Z,72.2
2019-04-28T05:09:51.737Z,70.2
2019-04-28T05:14:51.782Z,70.1
2019-04-28T05:19:51.644Z,70.1
2019-04-28T05:24:54.673Z,70.2
2019-04-28T05:29:51.774Z,69.8
2019-04-28T05:34:53.200Z,69.3
2019-04-28T05:39:52.899Z,69.6
2019-04-28T05:44:52.729Z,69
2019-04-28T05:49:51.691Z,69.2
2019-04-28T05:54:51.882Z,68
2019-04-28T05:59:51.657Z,68.1
2019-04-28T06:04:51.664Z,68.4
2019-04-28T06:09:51.676Z,67.6
2019-04-28T06:14:51.669Z,67.3
2019-04-28T06:19:51.829Z,66.4
2019-04-28T06:24:51.863Z,65.1
2019-04-28T06:29:52.002Z,64.4
2019-04-28T06:34:51.904Z,63
2019-04-28T06:39:51.797Z,62.3
2019-04-28T06:44:51.813Z,61.8
2019-04-28T06:49:51.894Z,62.1
2019-04-28T06:54:51.871Z,60.1
2019-04-28T06:59:51.907Z,60.2
2019-04-28T07:05:02.651Z,60.2
2019-04-28T07:09:51.716Z,60.1
2019-04-28T07:14:51.696Z,60.8
2019-04-28T07:19:51.718Z,57.1
2019-04-28T07:24:51.702Z,59.3
2019-04-28T07:29:51.874Z,57.7
2019-04-28T07:34:51.940Z,56.2
2019-04-28T07:39:51.700Z,55.6
2019-04-28T07:44:51.931Z,54.1
2019-04-28T07:49:51.738Z,54.3
2019-04-28T07:54:51.963Z,54.2
2019-04-28T07:59:51.723Z,55.6
2019-04-28T08:04:51.924Z,54.7
2019-04-28T08:09:51.889Z,54.8
2019-04-28T08:14:51.746Z,55.6
2019-04-28T08:19:52.064Z,56.5
2019-04-28T08:24:51.734Z,56.4
2019-04-28T08:29:58.982Z,56
2019-04-28T08:34:51.931Z,54.7
2019-04-28T08:39:51.962Z,54
2019-04-28T08:44:51.809Z,53.2
2019-04-28T08:49:52.108Z,54.9
2019-04-28T08:54:51.725Z,54
2019-04-28T08:59:51.749Z,53.7
2019-04-28T09:04:51.981Z,54.7
2019-04-28T09:09:51.918Z,53.7
2019-04-28T09:14:51.980Z,52.8
2019-04-28T09:19:51.905Z,49.7
2019-04-28T09:24:51.759Z,50.3
2019-04-28T09:29:51.998Z,50.7
2019-04-28T09:34:51.931Z,52.3
2019-04-28T09:39:51.938Z,52.1
2019-04-28T09:44:52.001Z,48.3
2019-04-28T09:49:51.928Z,49.4
2019-04-28T09:54:51.952Z,50.1
2019-04-28T09:59:51.977Z,50.5
2019-04-28T10:04:51.927Z,50.3
2019-04-28T10:09:51.958Z,49.8
2019-04-28T10:14:51.796Z,51.1
2019-04-28T10:19:52.059Z,51.8
2019-04-28T10:24:51.927Z,50.9
2019-04-28T10:29:51.836Z,51
2019-04-28T10:34:55.508Z,51.4
2019-04-28T10:39:51.906Z,49.5
2019-04-28T10:44:51.846Z,48.7
2019-04-28T10:49:52.721Z,47
2019-04-28T10:54:52.891Z,47.3
2019-04-28T10:59:52.833Z,47.8
2019-04-28T11:04:52.874Z,47.5
2019-04-28T11:09:52.808Z,45.4
2019-04-28T11:14:52.967Z,46.4
2019-04-28T11:19:52.803Z,47.3
2019-04-28T11:24:52.721Z,46.3
2019-04-28T11:29:52.770Z,46.5
2019-04-28T11:34:52.722Z,46.8
2019-04-28T11:39:53.029Z,48.4
2019-04-28T11:44:52.789Z,47.3
2019-04-28T11:49:52.980Z,47.8
2019-04-28T11:54:52.742Z,46.6
2019-04-28T11:59:54.619Z,46.4
2019-04-28T12:04:53.105Z,47.4
2019-04-28T12:10:05.533Z,47.4
2019-04-28T12:14:52.918Z,46.4
2019-04-28T12:19:53.102Z,44.2
2019-04-28T12:24:53.318Z,47
2019-04-28T12:29:52.863Z,44.9
2019-04-28T12:34:52.864Z,43.1
2019-04-28T12:39:53.223Z,43.8
2019-04-28T12:44:52.869Z,44
2019-04-28T12:49:52.778Z,43.8
2019-04-28T12:54:53.028Z,41.9
2019-04-28T12:59:53.461Z,42.8
2019-04-28T13:04:53.117Z,43.3
2019-04-28T13:09:52.899Z,42.9
2019-04-28T13:14:52.904Z,42.6
2019-04-28T13:19:52.953Z,41.9
2019-04-28T13:24:52.904Z,42.1
2019-04-28T13:29:52.820Z,42.4
2019-04-28T13:34:52.998Z,41.2
2019-04-28T13:39:53.026Z,40.8
2019-04-28T13:44:52.970Z,41.5
2019-04-28T13:49:52.832Z,43
2019-04-28T13:54:53.879Z,41.1
2019-04-28T13:59:53.090Z,41.4
2019-04-28T14:04:53.009Z,41.3
2019-04-28T14:09:53.058Z,40.2
2019-04-28T14:14:53.012Z,38.6
2019-04-28T14:19:52.966Z,37.1
2019-04-28T14:24:53.415Z,38.3
2019-04-28T14:29:53.073Z,39.8
2019-04-28T14:34:53.177Z,39.4
2019-04-28T14:39:52.928Z,37.7
2019-04-28T14:44:53.800Z,38.2
2019-04-28T14:49:53.272Z,38.7
2019-04-28T14:54:53.071Z,40
2019-04-28T14:59:53.044Z,39
2019-04-28T15:04:53.042Z,38.8
2019-04-28T15:09:53.380Z,40.6
2019-04-28T15:14:53.039Z,38.8
2019-04-28T15:19:53.082Z,39
2019-04-28T15:24:52.937Z,39.3
2019-04-28T15:29:52.841Z,39.6
2019-04-28T15:34:52.854Z,39.4
2019-04-28T15:39:53.246Z,39.5
2019-04-28T15:44:53.011Z,40
2019-04-28T15:49:53.068Z,39.7
2019-04-28T15:54:53.077Z,40.2
2019-04-28T15:59:53.506Z,39.5
2019-04-28T16:04:53.062Z,40.6
2019-04-28T16:09:53.088Z,41.5
2019-04-28T16:14:53.017Z,40.8
2019-04-28T16:19:53.382Z,40.1
2019-04-28T16:24:52.973Z,40.6
2019-04-28T16:29:53.146Z,40.6
2019-04-28T16:34:53.041Z,40.9
2019-04-28T16:39:53.171Z,41.7
2019-04-28T16:44:53.100Z,42.4
2019-04-28T16:49:53.029Z,41.9
2019-04-28T16:54:53.085Z,42.4
2019-04-28T16:59:52.858Z,42
2019-04-28T17:04:52.887Z,42.5
2019-04-28T17:09:53.294Z,44.1
2019-04-28T17:14:52.915Z,44
2019-04-28T17:19:52.990Z,44
2019-04-28T17:24:53.546Z,45.5
2019-04-28T17:29:53.122Z,45.7
2019-04-28T17:34:53.057Z,46.2
2019-04-28T17:39:52.984Z,45.5
2019-04-28T17:44:53.128Z,46.9
2019-04-28T17:49:53.165Z,47.2
2019-04-28T17:54:53.282Z,47
2019-04-28T17:59:53.154Z,47.8
2019-04-28T18:04:53.526Z,47.7
2019-04-28T18:09:53.018Z,48.7
2019-04-28T18:14:52.951Z,49.1
2019-04-28T18:19:54.259Z,50.2
2019-04-28T18:24:53.967Z,50.1
2019-04-28T18:29:53.807Z,51.1
2019-04-28T18:34:53.333Z,52.3
2019-04-28T18:39:53.205Z,52.6
2019-04-28T18:44:53.437Z,52.2
2019-04-28T18:49:53.342Z,53.3
2019-04-28T18:54:53.453Z,53.1
2019-04-28T18:59:53.309Z,54
2019-04-28T19:04:54.642Z,53.6
2019-04-28T19:09:54.458Z,54.5
2019-04-28T19:14:53.444Z,53.8
2019-04-28T19:19:54.443Z,54.8
2019-04-28T19:24:54.805Z,54.2
2019-04-28T19:29:53.128Z,54.4
2019-04-28T19:34:53.349Z,54.7
2019-04-28T19:39:53.451Z,55.3
2019-04-28T19:44:53.278Z,54.8
2019-04-28T19:49:53.197Z,55
2019-04-28T19:54:53.239Z,54.8
2019-04-28T19:59:53.387Z,55.4
2019-04-28T20:04:53.885Z,55.6
2019-04-28T20:09:53.215Z,55
2019-04-28T20:14:53.122Z,55.9
2019-04-28T20:19:53.045Z,56.7
2019-04-28T20:24:53.176Z,56.5
2019-04-28T20:29:53.253Z,57
2019-04-28T20:34:53.251Z,56
2019-04-28T20:39:53.201Z,55.7
2019-04-28T20:44:53.214Z,56.5
2019-04-28T20:49:53.182Z,56.1
2019-04-28T20:54:53.028Z,55.6
2019-04-28T20:59:53.004Z,55.9
2019-04-28T21:04:53.000Z,56
2019-04-28T21:09:53.176Z,55.3
2019-04-28T21:14:53.183Z,55.7
2019-04-28T21:19:53.231Z,55.1
2019-04-28T21:24:53.208Z,54.8
2019-04-28T21:29:53.206Z,55.5
2019-04-28T21:34:52.999Z,56
2019-04-28T21:39:53.165Z,55
2019-04-28T21:44:53.022Z,55.3
2019-04-28T21:49:53.162Z,55.5
2019-04-28T21:54:53.258Z,56
2019-04-28T21:59:53.215Z,56.4
2019-04-28T22:04:53.283Z,56.5
2019-04-28T22:09:53.261Z,55.8
2019-04-28T22:14:54.159Z,56.8
2019-04-28T22:19:53.242Z,57.3
2019-04-28T22:24:52.993Z,58.1
2019-04-28T22:29:53.072Z,58
2019-04-28T22:34:53.041Z,58.3
2019-04-28T22:39:53.038Z,59.1
2019-04-28T22:44:53.057Z,58.9
2019-04-28T22:49:53.066Z,58.2
2019-04-28T22:54:53.063Z,58.8
2019-04-28T22:59:53.193Z,59.2
2019-04-28T23:04:53.184Z,59.2
2019-04-28T23:09:53.185Z,59.9
2019-04-28T23:14:53.194Z,60.1
2019-04-28T23:19:53.226Z,60.3
2019-04-28T23:24:53.185Z,60.5
2019-04-28T23:29:53.300Z,60.5
2019-04-28T23:34:53.219Z,60.5
2019-04-28T23:39:53.075Z,60.4
2019-04-28T23:44:53.211Z,61.5
2019-04-28T23:49:53.208Z,61.6
2019-04-28T23:54:53.257Z,61.8
2019-04-28T23:59:53.102Z,61.1
